createdAt,value
2019-03-29T00:00:50.737Z,16.40
2019-03-29T00:03:20.249Z,15.43
2019-03-29T00:05:49.858Z,25.63
2019-03-29T00:08:19.545Z,20.67
2019-03-29T00:10:49.025Z,19.77
2019-03-29T00:13:19.129Z,24.37
2019-03-29T00:15:49.021Z,15.97
2019-03-29T00:18:18.512Z,15.53
2019-03-29T00:20:48.243Z,18.07
2019-03-29T00:23:18.019Z,45.90
2019-03-29T00:25:47.571Z,91.53
2019-03-29T00:28:17.058Z,39.97
2019-03-29T00:30:47.289Z,23.57
2019-03-29T00:33:18.056Z,18.50
2019-03-29T00:35:47.587Z,18.40
2019-03-29T00:38:17.280Z,17.20
2019-03-29T00:40:49.007Z,17.07
2019-03-29T00:43:19.078Z,16.07
2019-03-29T00:45:48.483Z,17.17
2019-03-29T00:48:18.366Z,16.50
2019-03-29T00:50:47.880Z,18.00
2019-03-29T00:53:18.000Z,17.43
2019-03-29T00:55:47.496Z,17.73
2019-03-29T00:58:17.253Z,38.87
2019-03-29T01:00:47.221Z,37.43
2019-03-29T01:03:16.879Z,36.67
2019-03-29T01:05:47.003Z,32.80
2019-03-29T01:08:16.823Z,30.23
2019-03-29T01:10:46.327Z,22.47
2019-03-29T01:13:15.943Z,18.03
2019-03-29T01:15:45.661Z,16.37
2019-03-29T01:18:15.281Z,16.43
2019-03-29T01:20:44.796Z,16.43
2019-03-29T01:23:14.593Z,17.27
2019-03-29T01:25:44.205Z,26.20
2019-03-29T01:28:13.789Z,48.33
2019-03-29T01:30:43.223Z,99.63
2019-03-29T01:33:12.746Z,76.90
2019-03-29T01:35:42.298Z,57.20
2019-03-29T01:38:21.806Z,51.47
2019-03-29T01:40:43.285Z,41.73
2019-03-29T01:43:14.438Z,57.40
2019-03-29T01:45:44.453Z,52.87
2019-03-29T01:48:14.835Z,37.73
2019-03-29T01:50:44.438Z,32.20
2019-03-29T01:53:13.990Z,26.87
2019-03-29T01:55:44.253Z,23.60
2019-03-29T01:58:13.753Z,21.77
2019-03-29T02:00:43.684Z,24.23
2019-03-29T02:03:13.418Z,22.47
2019-03-29T02:05:42.898Z,18.33
2019-03-29T02:08:12.337Z,15.47
2019-03-29T02:10:42.143Z,17.93
2019-03-29T02:13:11.743Z,19.37
2019-03-29T02:15:41.274Z,18.63
2019-03-29T02:18:10.792Z,17.63
2019-03-29T02:20:40.627Z,16.27
2019-03-29T02:23:10.132Z,16.20
2019-03-29T02:25:39.842Z,16.67
2019-03-29T02:28:09.512Z,15.87
2019-03-29T02:30:39.080Z,17.47
2019-03-29T02:33:08.870Z,18.47
2019-03-29T02:35:38.990Z,16.60
2019-03-29T02:38:08.638Z,16.40
2019-03-29T02:40:38.628Z,16.93
2019-03-29T02:43:08.303Z,18.27
2019-03-29T02:45:38.500Z,17.80
2019-03-29T02:48:09.631Z,18.37
2019-03-29T02:50:39.172Z,18.20
2019-03-29T02:53:08.734Z,18.17
2019-03-29T02:55:38.540Z,18.57
2019-03-29T02:58:08.386Z,18.57
2019-03-29T03:00:38.022Z,19.70
2019-03-29T03:03:07.978Z,19.60
2019-03-29T03:05:37.568Z,19.50
2019-03-29T03:08:06.999Z,20.90
2019-03-29T03:10:37.067Z,21.47
2019-03-29T03:13:07.064Z,19.37
2019-03-29T03:15:36.679Z,20.30
2019-03-29T03:18:06.297Z,21.17
2019-03-29T03:20:36.003Z,21.07
2019-03-29T03:23:05.491Z,23.10
2019-03-29T03:25:35.734Z,23.17
2019-03-29T03:28:07.433Z,23.70
2019-03-29T03:30:37.230Z,24.20
2019-03-29T03:33:07.114Z,22.20
2019-03-29T03:35:37.035Z,24.47
2019-03-29T03:38:06.662Z,23.33
2019-03-29T03:40:36.498Z,21.20
2019-03-29T03:43:06.263Z,64.27
2019-03-29T03:45:38.092Z,44.60
2019-03-29T03:48:07.844Z,32.50
2019-03-29T03:50:41.766Z,28.07
2019-03-29T03:53:12.238Z,25.57
2019-03-29T03:55:42.321Z,23.17
2019-03-29T03:58:12.735Z,24.73
2019-03-29T04:00:56.502Z,23.83
2019-03-29T04:03:27.561Z,22.80
2019-03-29T04:05:57.423Z,22.30
2019-03-29T04:08:27.665Z,23.77
2019-03-29T04:10:57.585Z,22.57
2019-03-29T04:13:28.178Z,23.20
2019-03-29T04:15:58.140Z,22.87
2019-03-29T04:18:28.619Z,22.10
2019-03-29T04:20:58.478Z,24.13
2019-03-29T04:23:28.238Z,21.63
2019-03-29T04:25:58.294Z,22.80
2019-03-29T04:28:28.382Z,22.33
2019-03-29T04:30:57.977Z,23.03
2019-03-29T04:33:30.249Z,22.57
2019-03-29T04:35:59.800Z,22.90
2019-03-29T04:38:29.401Z,22.40
2019-03-29T04:40:59.183Z,23.27
2019-03-29T04:43:28.692Z,22.87
2019-03-29T04:45:58.651Z,23.27
2019-03-29T04:48:28.377Z,23.57
2019-03-29T04:50:57.964Z,23.03
2019-03-29T04:53:28.564Z,22.43
2019-03-29T04:55:58.393Z,23.30
2019-03-29T04:58:28.147Z,23.03
2019-03-29T05:00:57.655Z,22.40
2019-03-29T05:03:27.251Z,22.03
2019-03-29T05:05:56.957Z,22.43
2019-03-29T05:08:27.199Z,22.53
2019-03-29T05:10:58.246Z,22.30
2019-03-29T05:13:28.085Z,24.40
2019-03-29T05:15:57.639Z,22.77
2019-03-29T05:18:29.661Z,22.03
2019-03-29T05:20:59.372Z,23.20
2019-03-29T05:23:29.230Z,22.77
2019-03-29T05:25:58.911Z,22.30
2019-03-29T05:28:28.685Z,23.50
2019-03-29T05:30:58.630Z,24.63
2019-03-29T05:33:28.773Z,23.40
2019-03-29T05:35:58.268Z,25.07
2019-03-29T05:38:28.691Z,23.20
2019-03-29T05:40:58.341Z,25.20
2019-03-29T05:43:29.255Z,23.00
2019-03-29T05:45:59.103Z,24.10
2019-03-29T05:48:29.196Z,23.60
2019-03-29T05:50:59.005Z,23.57
2019-03-29T05:53:31.171Z,24.13
2019-03-29T05:56:00.739Z,23.77
2019-03-29T05:58:30.356Z,24.53
2019-03-29T06:01:00.671Z,24.43
2019-03-29T06:03:30.854Z,24.20
2019-03-29T06:06:00.718Z,23.53
2019-03-29T06:08:30.321Z,26.27
2019-03-29T06:10:59.862Z,25.20
2019-03-29T06:13:29.790Z,30.47
2019-03-29T06:16:06.190Z,41.27
2019-03-29T06:18:35.162Z,62.03
2019-03-29T06:21:04.803Z,37.20
2019-03-29T06:27:03.157Z,24.57
2019-03-29T06:29:33.009Z,25.27
2019-03-29T06:32:02.877Z,23.80
2019-03-29T06:34:32.808Z,24.40
2019-03-29T06:37:02.824Z,26.70
2019-03-29T06:39:32.725Z,25.67
2019-03-29T06:42:02.473Z,24.27
2019-03-29T06:44:32.175Z,25.40
2019-03-29T06:47:02.030Z,25.70
2019-03-29T06:49:31.709Z,26.60
2019-03-29T06:52:01.518Z,27.87
2019-03-29T06:54:31.490Z,29.13
2019-03-29T06:57:24.899Z,26.97
2019-03-29T06:59:54.433Z,28.10
2019-03-29T07:02:26.669Z,25.60
2019-03-29T07:04:56.170Z,25.70
2019-03-29T07:07:25.927Z,26.43
2019-03-29T07:09:55.458Z,26.13
2019-03-29T07:12:25.891Z,25.07
2019-03-29T07:14:56.388Z,24.97
2019-03-29T07:17:26.189Z,25.20
2019-03-29T07:19:56.007Z,26.07
2019-03-29T07:22:25.746Z,26.47
2019-03-29T07:24:58.047Z,24.07
2019-03-29T07:27:28.139Z,54.83
2019-03-29T07:29:58.035Z,51.63
2019-03-29T07:32:27.742Z,36.67
2019-03-29T07:34:57.649Z,36.30
2019-03-29T07:37:28.774Z,28.80
2019-03-29T07:39:59.607Z,29.87
2019-03-29T07:42:31.550Z,27.90
2019-03-29T07:45:00.795Z,23.80
2019-03-29T07:47:30.934Z,23.07
2019-03-29T07:50:02.843Z,23.27
2019-03-29T07:52:34.469Z,24.63
2019-03-29T07:55:05.034Z,22.10
2019-03-29T07:57:35.357Z,23.80
2019-03-29T08:00:10.523Z,25.40
2019-03-29T08:02:40.211Z,25.77
2019-03-29T08:05:09.845Z,23.17
2019-03-29T08:07:39.825Z,24.10
2019-03-29T08:10:18.910Z,25.50
2019-03-29T08:12:41.184Z,22.70
2019-03-29T08:15:11.532Z,22.00
2019-03-29T08:17:41.266Z,30.53
2019-03-29T08:20:38.827Z,29.57
2019-03-29T08:22:44.177Z,24.43
2019-03-29T08:25:13.785Z,26.47
2019-03-29T08:27:45.062Z,29.40
2019-03-29T08:30:14.906Z,25.00
2019-03-29T08:32:45.552Z,23.40
2019-03-29T08:35:15.418Z,23.43
2019-03-29T08:37:45.966Z,28.40
2019-03-29T08:40:22.967Z,24.77
2019-03-29T08:42:52.744Z,22.23
2019-03-29T08:45:23.461Z,20.00
2019-03-29T08:47:56.120Z,20.30
2019-03-29T08:50:26.574Z,20.30
2019-03-29T08:52:57.358Z,19.13
2019-03-29T08:55:27.926Z,20.10
2019-03-29T08:58:02.049Z,20.00
2019-03-29T09:00:32.467Z,19.83
2019-03-29T09:03:10.014Z,19.03
2019-03-29T09:05:40.761Z,19.43
2019-03-29T09:08:11.274Z,19.20
2019-03-29T09:10:40.927Z,27.73
2019-03-29T09:13:13.963Z,28.47
2019-03-29T09:15:43.873Z,25.40
2019-03-29T09:18:13.550Z,25.30
2019-03-29T09:20:43.633Z,29.67
2019-03-29T09:23:15.033Z,30.50
2019-03-29T09:25:45.669Z,29.20
2019-03-29T09:28:18.548Z,20.93
2019-03-29T09:30:49.345Z,17.70
2019-03-29T09:33:19.448Z,16.93
2019-03-29T09:35:50.955Z,29.27
2019-03-29T09:38:20.794Z,30.00
2019-03-29T09:40:58.262Z,17.13
2019-03-29T09:43:22.280Z,17.70
2019-03-29T09:45:52.300Z,16.13
2019-03-29T09:48:22.451Z,18.10
2019-03-29T09:50:52.260Z,19.13
2019-03-29T09:53:23.224Z,17.70
2019-03-29T09:55:53.467Z,13.83
2019-03-29T09:58:23.363Z,13.77
2019-03-29T10:00:54.150Z,14.00
2019-03-29T10:03:23.724Z,14.03
2019-03-29T10:05:53.356Z,12.60
2019-03-29T10:08:23.085Z,13.63
2019-03-29T10:10:56.293Z,13.87
2019-03-29T10:13:26.243Z,13.20
2019-03-29T10:15:56.101Z,12.03
2019-03-29T10:18:25.928Z,13.17
2019-03-29T10:20:55.647Z,12.30
2019-03-29T10:23:25.397Z,12.43
2019-03-29T10:25:59.400Z,13.20
2019-03-29T10:28:29.126Z,12.07
2019-03-29T10:30:59.012Z,15.20
2019-03-29T10:33:28.505Z,17.60
2019-03-29T10:35:57.953Z,14.17
2019-03-29T10:38:28.024Z,14.13
2019-03-29T10:40:57.671Z,22.67
2019-03-29T10:43:27.361Z,10.13
2019-03-29T10:45:57.143Z,9.80
2019-03-29T10:48:27.349Z,8.83
2019-03-29T10:50:57.008Z,10.20
2019-03-29T10:53:28.739Z,8.83
2019-03-29T10:55:58.146Z,8.33
2019-03-29T10:58:27.745Z,8.10
2019-03-29T11:00:57.517Z,6.37
2019-03-29T11:03:28.843Z,6.40
2019-03-29T11:05:59.119Z,6.20
2019-03-29T11:08:28.905Z,5.80
2019-03-29T11:10:58.722Z,14.60
2019-03-29T11:13:28.297Z,14.23
2019-03-29T11:15:58.037Z,6.03
2019-03-29T11:18:27.766Z,4.13
2019-03-29T11:20:57.437Z,4.80
2019-03-29T11:23:27.192Z,4.07
2019-03-29T11:25:56.897Z,4.13
2019-03-29T11:28:26.725Z,4.83
2019-03-29T11:30:56.402Z,5.07
2019-03-29T11:33:25.934Z,4.93
2019-03-29T11:35:55.707Z,5.00
2019-03-29T11:38:27.786Z,4.97
2019-03-29T11:40:57.495Z,5.17
2019-03-29T11:43:27.586Z,5.20
2019-03-29T11:45:57.548Z,9.83
2019-03-29T11:48:29.621Z,23.23
2019-03-29T11:51:00.081Z,15.33
2019-03-29T11:53:29.642Z,8.33
2019-03-29T11:55:59.341Z,8.37
2019-03-29T11:58:33.278Z,7.63
2019-03-29T12:01:05.526Z,8.53
2019-03-29T12:03:35.057Z,7.37
2019-03-29T12:06:04.872Z,8.20
2019-03-29T12:08:48.381Z,5.70
2019-03-29T12:11:18.639Z,8.23
2019-03-29T12:13:48.401Z,10.83
2019-03-29T12:16:18.498Z,9.33
2019-03-29T12:18:48.445Z,8.83
2019-03-29T12:21:20.160Z,7.33
2019-03-29T12:23:49.858Z,5.50
2019-03-29T12:26:21.449Z,5.87
2019-03-29T12:28:59.450Z,5.60
2019-03-29T12:31:34.277Z,4.67
2019-03-29T12:34:05.967Z,4.73
2019-03-29T12:36:36.047Z,7.87
2019-03-29T12:39:07.381Z,6.57
2019-03-29T12:41:37.141Z,6.20
2019-03-29T12:44:06.781Z,4.73
2019-03-29T12:46:36.735Z,3.93
2019-03-29T12:49:06.742Z,4.00
2019-03-29T12:51:37.646Z,4.00
2019-03-29T12:54:07.411Z,4.20
2019-03-29T12:56:37.066Z,3.53
2019-03-29T12:59:06.929Z,4.03
2019-03-29T13:01:39.865Z,4.17
2019-03-29T13:04:09.854Z,3.63
2019-03-29T13:06:40.133Z,3.60
2019-03-29T13:09:11.921Z,6.37
2019-03-29T13:11:41.681Z,5.10
2019-03-29T13:14:11.226Z,4.60
2019-03-29T13:16:47.470Z,8.47
2019-03-29T13:19:17.604Z,6.87
2019-03-29T13:21:47.415Z,6.60
2019-03-29T13:24:17.620Z,7.03
2019-03-29T13:26:50.548Z,5.50
2019-03-29T13:29:21.625Z,9.40
2019-03-29T13:31:55.539Z,6.77
2019-03-29T13:34:25.240Z,5.10
2019-03-29T13:36:54.804Z,4.83
2019-03-29T13:39:24.685Z,5.70
2019-03-29T13:41:54.352Z,6.37
2019-03-29T13:44:28.016Z,11.73
2019-03-29T13:46:55.378Z,11.17
2019-03-29T13:49:25.094Z,7.10
2019-03-29T13:51:54.960Z,6.23
2019-03-29T13:54:24.776Z,7.30
2019-03-29T13:56:54.688Z,9.37
2019-03-29T13:59:24.508Z,9.90
2019-03-29T14:01:54.299Z,10.27
2019-03-29T14:04:24.019Z,10.03
2019-03-29T14:06:53.864Z,8.33
2019-03-29T14:09:23.295Z,7.57
2019-03-29T14:11:52.906Z,9.33
2019-03-29T14:14:22.714Z,9.93
2019-03-29T14:16:52.908Z,7.90
2019-03-29T14:19:25.683Z,8.43
2019-03-29T14:21:54.086Z,8.47
2019-03-29T14:24:23.882Z,6.13
2019-03-29T14:26:53.605Z,5.53
2019-03-29T14:29:28.106Z,7.30
2019-03-29T14:31:57.837Z,7.13
2019-03-29T14:34:27.802Z,6.60
2019-03-29T14:36:59.326Z,7.00
2019-03-29T14:39:28.895Z,7.63
2019-03-29T14:41:58.770Z,7.47
2019-03-29T14:44:28.383Z,6.97
2019-03-29T14:46:58.369Z,6.23
2019-03-29T14:49:27.995Z,6.70
2019-03-29T14:51:57.539Z,6.60
2019-03-29T14:54:27.393Z,6.97
2019-03-29T14:56:56.993Z,7.50
2019-03-29T14:59:26.689Z,9.40
2019-03-29T15:01:56.390Z,6.90
2019-03-29T15:04:27.399Z,6.53
2019-03-29T15:06:57.291Z,6.00
2019-03-29T15:09:27.256Z,6.20
2019-03-29T15:11:57.263Z,5.53
2019-03-29T15:14:27.018Z,6.33
2019-03-29T15:16:56.865Z,6.87
2019-03-29T15:19:26.614Z,6.20
2019-03-29T15:21:56.451Z,7.67
2019-03-29T15:24:26.003Z,8.10
2019-03-29T15:26:55.664Z,7.10
2019-03-29T15:29:26.220Z,5.90
2019-03-29T15:31:55.818Z,5.97
2019-03-29T15:34:26.124Z,6.07
2019-03-29T15:36:56.011Z,7.00
2019-03-29T15:39:26.858Z,6.33
2019-03-29T15:41:56.649Z,6.63
2019-03-29T15:44:27.586Z,6.40
2019-03-29T15:46:57.503Z,5.40
2019-03-29T15:49:27.870Z,7.03
2019-03-29T15:51:57.632Z,5.70
2019-03-29T15:54:27.503Z,6.37
2019-03-29T15:56:57.150Z,5.80
2019-03-29T15:59:26.909Z,6.10
2019-03-29T16:01:56.522Z,6.53
2019-03-29T16:04:26.884Z,5.27
2019-03-29T16:06:56.544Z,5.83
2019-03-29T16:09:26.206Z,5.27
2019-03-29T16:11:55.775Z,5.73
2019-03-29T16:14:25.738Z,6.27
2019-03-29T16:16:55.439Z,5.87
2019-03-29T16:19:25.414Z,5.77
2019-03-29T16:21:55.077Z,5.23
2019-03-29T16:24:24.754Z,9.53
2019-03-29T16:26:56.204Z,7.70
2019-03-29T16:29:25.995Z,6.37
2019-03-29T16:31:55.612Z,6.97
2019-03-29T16:34:25.187Z,6.70
2019-03-29T16:36:57.051Z,5.53
2019-03-29T16:39:27.468Z,5.50
2019-03-29T16:42:00.272Z,6.17
2019-03-29T16:44:30.277Z,6.60
2019-03-29T16:47:00.541Z,6.83
2019-03-29T16:49:30.622Z,7.67
2019-03-29T16:52:00.245Z,9.87
2019-03-29T16:54:48.776Z,10.27
2019-03-29T16:57:18.699Z,9.40
2019-03-29T16:59:49.819Z,6.70
2019-03-29T17:02:19.743Z,6.10
2019-03-29T17:04:49.900Z,9.37
2019-03-29T17:07:19.529Z,5.73
2019-03-29T17:09:49.434Z,5.97
2019-03-29T17:12:19.178Z,6.27
2019-03-29T17:14:48.974Z,6.37
2019-03-29T17:17:19.923Z,6.50
2019-03-29T17:19:49.677Z,6.27
2019-03-29T17:22:22.664Z,8.47
2019-03-29T17:24:57.116Z,12.07
2019-03-29T17:27:24.140Z,13.40
2019-03-29T17:29:53.872Z,8.70
2019-03-29T17:32:23.544Z,8.23
2019-03-29T17:34:53.240Z,7.73
2019-03-29T17:37:23.446Z,7.93
2019-03-29T17:39:53.234Z,7.27
2019-03-29T17:42:24.217Z,7.17
2019-03-29T17:44:54.132Z,7.10
2019-03-29T17:47:28.167Z,6.77
2019-03-29T17:49:58.097Z,7.07
2019-03-29T17:52:28.372Z,7.60
2019-03-29T17:55:01.271Z,7.87
2019-03-29T17:57:31.252Z,8.53
2019-03-29T18:00:00.940Z,9.47
2019-03-29T18:02:30.731Z,10.50
2019-03-29T18:05:00.384Z,8.37
2019-03-29T18:07:30.063Z,9.30
2019-03-29T18:09:59.590Z,9.30
2019-03-29T18:12:29.818Z,9.50
2019-03-29T18:14:59.463Z,11.17
2019-03-29T18:17:29.373Z,9.07
2019-03-29T18:19:59.303Z,8.73
2019-03-29T18:22:29.126Z,13.30
2019-03-29T18:25:00.069Z,10.47
2019-03-29T18:27:30.235Z,9.80
2019-03-29T18:30:02.036Z,9.03
2019-03-29T18:32:33.068Z,9.63
2019-03-29T18:35:02.913Z,10.10
2019-03-29T18:37:32.857Z,9.87
2019-03-29T18:40:03.127Z,9.30
2019-03-29T18:42:34.561Z,8.97
2019-03-29T18:45:04.455Z,8.43
2019-03-29T18:47:34.494Z,24.77
2019-03-29T18:50:04.639Z,33.23
2019-03-29T18:52:34.405Z,23.63
2019-03-29T18:55:04.096Z,17.23
2019-03-29T18:57:33.793Z,20.13
2019-03-29T19:00:06.172Z,22.57
2019-03-29T19:02:36.027Z,12.77
2019-03-29T19:05:06.539Z,10.93
2019-03-29T19:07:36.424Z,9.87
2019-03-29T19:10:07.015Z,9.90
2019-03-29T19:12:38.162Z,9.57
2019-03-29T19:15:08.210Z,9.50
2019-03-29T19:17:37.896Z,9.87
2019-03-29T19:20:10.413Z,9.77
2019-03-29T19:22:40.008Z,10.50
2019-03-29T19:25:10.191Z,9.47
2019-03-29T19:27:40.110Z,10.67
2019-03-29T19:30:11.286Z,31.50
2019-03-29T19:32:40.937Z,30.17
2019-03-29T19:35:12.111Z,87.83
2019-03-29T19:37:41.766Z,47.40
2019-03-29T19:40:11.670Z,25.90
2019-03-29T19:42:41.208Z,16.47
2019-03-29T19:45:11.523Z,24.87
2019-03-29T19:47:41.183Z,36.73
2019-03-29T19:50:11.266Z,32.90
2019-03-29T19:52:40.797Z,16.43
2019-03-29T19:55:11.572Z,20.90
2019-03-29T19:57:41.222Z,21.10
2019-03-29T20:00:13.290Z,21.97
2019-03-29T20:02:43.665Z,14.40
2019-03-29T20:05:32.532Z,11.73
2019-03-29T20:08:02.284Z,11.53
2019-03-29T20:10:32.273Z,9.57
2019-03-29T20:13:02.371Z,8.90
2019-03-29T20:15:32.441Z,9.20
2019-03-29T20:18:02.775Z,8.07
2019-03-29T20:20:33.161Z,9.60
2019-03-29T20:23:03.003Z,8.30
2019-03-29T20:25:32.669Z,8.50
2019-03-29T20:28:02.319Z,8.67
2019-03-29T20:30:32.108Z,8.40
2019-03-29T20:33:01.876Z,9.17
2019-03-29T20:35:31.951Z,14.53
2019-03-29T20:38:01.801Z,40.47
2019-03-29T20:40:32.393Z,22.90
2019-03-29T20:43:03.009Z,14.17
2019-03-29T20:45:33.290Z,11.30
2019-03-29T20:48:02.835Z,13.77
2019-03-29T20:50:32.909Z,19.97
2019-03-29T20:53:02.648Z,22.90
2019-03-29T20:55:32.166Z,20.00
2019-03-29T20:58:01.701Z,19.53
2019-03-29T21:00:31.507Z,13.97
2019-03-29T21:03:01.191Z,11.23
2019-03-29T21:05:31.219Z,10.87
2019-03-29T21:08:05.051Z,10.90
2019-03-29T21:10:35.579Z,10.53
2019-03-29T21:13:07.086Z,10.17
2019-03-29T21:15:37.662Z,10.03
2019-03-29T21:18:07.388Z,9.47
2019-03-29T21:20:37.589Z,9.00
2019-03-29T21:23:07.487Z,9.07
2019-03-29T21:25:37.088Z,11.43
2019-03-29T21:28:06.799Z,20.17
2019-03-29T21:30:36.564Z,12.70
2019-03-29T21:33:08.349Z,18.93
2019-03-29T21:35:38.138Z,17.93
2019-03-29T21:38:08.021Z,11.60
2019-03-29T21:40:39.743Z,8.73
2019-03-29T21:43:13.229Z,23.70
2019-03-29T21:45:42.914Z,29.53
2019-03-29T21:48:28.208Z,15.10
2019-03-29T21:50:52.273Z,12.30
2019-03-29T21:53:23.171Z,11.30
2019-03-29T21:56:02.022Z,10.93
2019-03-29T21:59:12.880Z,10.20
2019-03-29T22:01:53.181Z,10.37
2019-03-29T22:04:25.937Z,9.83
2019-03-29T22:07:00.022Z,9.77
2019-03-29T22:09:37.253Z,10.37
2019-03-29T22:12:17.171Z,16.10
2019-03-29T22:14:53.740Z,13.20
2019-03-29T22:17:25.874Z,12.53
2019-03-29T22:20:07.288Z,29.17
2019-03-29T22:22:39.649Z,28.87
2019-03-29T22:25:19.242Z,16.00
2019-03-29T22:28:17.172Z,18.20
2019-03-29T22:30:53.686Z,22.73
2019-03-29T22:33:24.187Z,18.73
2019-03-29T22:35:53.840Z,19.40
2019-03-29T22:38:23.751Z,24.37
2019-03-29T22:40:53.525Z,23.57
2019-03-29T22:43:28.002Z,28.40
2019-03-29T22:46:00.464Z,19.10
2019-03-29T22:48:30.401Z,16.27
2019-03-29T22:51:00.259Z,23.67
2019-03-29T22:53:33.295Z,19.20
2019-03-29T22:56:04.366Z,16.90
2019-03-29T22:58:41.016Z,20.07
2019-03-29T23:01:10.933Z,40.60
2019-03-29T23:03:40.605Z,27.60
2019-03-29T23:06:10.897Z,24.27
2019-03-29T23:08:40.637Z,30.00
2019-03-29T23:11:10.466Z,18.60
2019-03-29T23:13:40.167Z,21.33
2019-03-29T23:16:11.095Z,14.83
2019-03-29T23:18:42.994Z,9.90
2019-03-29T23:25:22.017Z,8.33
2019-03-29T23:35:55.647Z,8.07
2019-03-29T23:39:20.941Z,11.97
2019-03-29T23:42:09.523Z,20.27
2019-03-29T23:45:04.268Z,11.97
2019-03-29T23:47:59.006Z,9.80
2019-03-29T23:50:40.033Z,8.80
2019-03-29T23:53:30.223Z,8.47
2019-03-29T23:56:33.911Z,8.50
2019-03-29T23:59:01.409Z,28.90
